Flight Track Log - Related Links

Times and Time Zones

All times are in EDT time to prevent confusion due to time zone crossing. See the SWA1969 flight status page for this flight to view local times or setup timezone preferences in your user account.

Time Position Orientation Groundspeed Altitude Reporting Facility
EDT Latitude Longitude Course Direction KTS MPH feet Rate Location/Type
Fri 09:05:28 AM 32.8333 -96.8167 128° Southeast 162 186 2,400  Level Dallas / Fort Worth TRACON
Fri 09:06:23 AM 32.8000 -96.7667 128° Southeast 238 274 4,500 2,609 Climbing Dallas / Fort Worth TRACON
Fri 09:07:23 AM 32.8500 -96.7167 40° Northeast 288 331 7,400 2,533 Climbing Dallas / Fort Worth TRACON
Fri 09:09:42 AM 33.0383 -96.7767 345° North 344 396 12,900 2,593 Climbing Fort Worth Center
Fri 09:10:42 AM 33.1306 -96.8503 326° Northwest 360 414 16,000 2,800 Climbing Fort Worth Center
Fri 09:11:42 AM 33.2144 -96.9194 325° Northwest 365 420 18,500 2,500 Climbing Fort Worth Center
Fri 09:12:42 AM 33.3044 -96.9908 326° Northwest 372 428 21,000 2,250 Climbing Fort Worth Center
Fri 09:13:42 AM 33.3839 -97.0553 326° Northwest 381 438 23,000 1,350 Climbing Fort Worth Center
Fri 09:14:42 AM 33.4947 -97.1072 339° North 376 433 23,700 1,050 Climbing Fort Worth Center
Fri 09:15:42 AM 33.6158 -97.0917 North 400 460 25,100 1,550 Climbing Fort Worth Center
Fri 09:16:42 AM 33.7389 -97.0714 North 433 498 26,800 1,700 Climbing Fort Worth Center
Fri 09:17:42 AM 33.8597 -97.0158 21° North 453 521 28,500 1,450 Climbing Fort Worth Center
Fri 09:18:42 AM 33.9847 -96.9575 21° North 463 533 29,700 1,300 Climbing Fort Worth Center
Fri 09:19:42 AM 34.0950 -96.9019 23° Northeast 468 539 31,100 1,350 Climbing Fort Worth Center
Fri 09:20:42 AM 34.2119 -96.9036 359° North 443 510 32,400 1,200 Climbing Fort Worth Center
Fri 09:21:42 AM 34.3331 -96.9281 351° North 434 499 33,500 1,100 Climbing Fort Worth Center
Fri 09:22:42 AM 34.4564 -96.9500 352° North 439 505 34,600 1,150 Climbing Fort Worth Center
Fri 09:23:42 AM 34.5794 -96.9747 351° North 447 514 35,800 700 Climbing Fort Worth Center
Fri 09:24:42 AM 34.6983 -96.9942 352° North 447 514 36,000 100 Climbing Fort Worth Center
Fri 09:25:42 AM 34.8217 -97.0189 351° North 447 514 36,000  Level Fort Worth Center
Fri 09:26:42 AM 34.9406 -97.0411 351° North 442 509 36,000  Level Fort Worth Center
Fri 09:28:57 AM 35.2200 -97.0906 352° North 433 498 36,000  Level Kansas City Center
Fri 09:29:58 AM 35.3383 -97.1128 351° North 434 499 36,000  Level Kansas City Center
Fri 09:30:59 AM 35.4556 -97.1342 352° North 434 499 36,000  Level Kansas City Center
Fri 09:32:03 AM 35.5731 -97.1578 351° North 435 501 36,000  Level Kansas City Center
Fri 09:33:03 AM 35.6928 -97.1803 351° North 437 503 36,000  Level Kansas City Center
Fri 09:34:04 AM 35.8353 -97.2083 351° North 436 502 36,000  Level Kansas City Center
Fri 09:35:06 AM 35.9528 -97.2308 351° North 431 496 36,000  Level Kansas City Center
Fri 09:36:07 AM 36.0733 -97.2533 351° North 436 502 36,000  Level Kansas City Center
Fri 09:37:09 AM 36.1919 -97.2769 351° North 435 501 36,000  Level Kansas City Center
Fri 09:38:09 AM 36.3131 -97.3006 351° North 437 503 36,000  Level Kansas City Center
Fri 09:39:13 AM 36.4350 -97.3242 351° North 442 509 36,000  Level Kansas City Center
Fri 09:40:14 AM 36.5586 -97.3486 351° North 446 513 36,000  Level Kansas City Center
Fri 09:41:15 AM 36.6825 -97.3719 351° North 449 517 36,000  Level Kansas City Center
Fri 09:42:15 AM 36.8292 -97.4031 350° North 446 513 36,000  Level Kansas City Center
Fri 09:43:19 AM 36.9556 -97.4106 357° North 448 516 36,000  Level Kansas City Center
Fri 09:44:19 AM 37.0836 -97.3869 North 461 531 36,000  Level Kansas City Center
Fri 09:45:23 AM 37.2117 -97.3625 North 465 535 36,000  Level Kansas City Center
Fri 09:46:24 AM 37.3356 -97.3050 20° North 473 544 36,000  Level Kansas City Center
Fri 09:47:24 AM 37.4597 -97.2428 22° Northeast 482 555 36,000  Level Kansas City Center
Fri 09:48:27 AM 37.5828 -97.1789 22° Northeast 483 556 36,000 -339 Level Kansas City Center
Fri 09:49:28 AM 37.7067 -97.1167 22° Northeast 483 556 35,300 -934 Descending Kansas City Center
Fri 09:50:29 AM 37.8553 -97.0439 21° North 482 555 34,100 -2,016 Descending Kansas City Center
Fri 09:51:30 AM 37.9778 -96.9844 21° North 476 548 31,200 -2,066 Descending Kansas City Center
Fri 09:52:31 AM 38.1036 -96.9253 20° North 484 557 29,900 -1,056 Descending Kansas City Center
Fri 09:53:35 AM 38.2197 -96.8317 32° Northeast 498 573 29,000 -919 Descending Kansas City Center
Fri 09:54:35 AM 38.3044 -96.6989 51° Northeast 490 564 28,000 -1,488 Descending Kansas City Center
Fri 09:55:36 AM 38.3956 -96.5753 47° Northeast 478 550 26,000 -1,776 Descending Kansas City Center
Fri 09:56:40 AM 38.4806 -96.4186 55° Northeast 464 534 24,300 -1,296 Descending Kansas City Center
Fri 09:57:41 AM 38.5278 -96.2758 67° East 457 526 23,300 -639 Descending Kansas City Center
Fri 09:58:42 AM 38.5822 -96.1100 67° East 453 521 23,000 -148 Descending Kansas City Center
Fri 09:59:43 AM 38.6278 -95.9697 67° East 449 517 23,000 -480 Level Kansas City Center
Fri 10:00:47 AM 38.6803 -95.8094 67° East 440 506 22,000 -1,113 Descending Kansas City Center
Fri 10:01:47 AM 38.7236 -95.6767 67° East 427 491 20,700 -1,488 Descending Kansas City Center
Fri 10:02:48 AM 38.7653 -95.5464 68° East 417 480 19,000 -1,820 Descending Kansas City Center
Fri 10:03:49 AM 38.8183 -95.4031 65° Northeast 400 460 17,000 -1,824 Descending Kansas City Center
Fri 10:04:53 AM 38.8878 -95.3047 48° Northeast 390 449 15,200 -1,857 Descending Kansas City Center
Fri 10:05:55 AM 38.9661 -95.1942 48° Northeast 377 434 13,100 -1,574 Descending Kansas City Center
Fri 10:06:55 AM 39.0300 -95.1036 48° Northeast 364 419 12,000 -532 Descending Kansas City Center
Fri 10:07:59 AM 39.0972 -95.0058 48° Northeast 329 379 12,000 -48 Level Kansas City Center
Fri 10:09:00 AM 39.1508 -94.9297 48° Northeast 304 350 11,900 -347 Descending Kansas City Center
Fri 10:10:00 AM 39.2133 -94.8650 39° Northeast 263 303 11,300 -829 Descending Kansas City Center
Fri 10:11:03 AM 39.2750 -94.8397 18° North 244 281 10,200 -1,306 Descending Kansas City Center
Fri 10:12:04 AM 39.3483 -94.8128 16° North 247 284 8,600 -1,426 Descending Kansas City Center
Fri 10:13:05 AM 39.4083 -94.7931 14° North 234 269 7,300 -1,392 Descending Kansas City Center
Fri 10:14:09 AM 39.4283 -94.7322 67° East 204 235 5,700 -1,584 Descending Kansas City Center
Fri 10:15:10 AM 39.4019 -94.6994 136° Southeast 152 175 4,000 -1,672 Descending Kansas City Center
Fri 10:16:11 AM 39.3681 -94.7081 191° South 129 148 2,300 -1,403 Descending Kansas City Center
Fri 10:17:14 AM 39.3294 -94.7189 192° South 128 147 1,100 -683 Descending Kansas City Center
Fri 10:18:14 AM 39.2908 -94.7306 193° South 130 150 900 -200 Descending Kansas City Center

Login

Don't have an account? Register now (free) for customized features, flight alerts, and more!